createdAt,value
2018-06-15T00:00:49.527Z,18.60
2018-06-15T00:03:17.622Z,18.60
2018-06-15T00:05:45.735Z,18.60
2018-06-15T00:08:13.834Z,18.60
2018-06-15T00:10:41.947Z,18.60
2018-06-15T00:13:10.051Z,18.60
2018-06-15T00:15:38.153Z,18.60
2018-06-15T00:18:06.281Z,18.60
2018-06-15T00:20:34.394Z,18.60
2018-06-15T00:23:02.527Z,18.60
2018-06-15T00:25:30.618Z,18.60
2018-06-15T00:27:58.723Z,18.60
2018-06-15T00:30:26.848Z,18.60
2018-06-15T00:32:54.963Z,18.60
2018-06-15T00:35:23.069Z,18.60
2018-06-15T00:37:51.190Z,18.60
2018-06-15T00:40:19.299Z,18.60
2018-06-15T00:42:47.414Z,18.60
2018-06-15T00:45:15.565Z,18.60
2018-06-15T00:47:43.719Z,18.60
2018-06-15T00:50:11.866Z,18.60
2018-06-15T00:52:40.018Z,18.60
2018-06-15T00:55:08.182Z,18.60
2018-06-15T00:57:42.979Z,18.60
2018-06-15T01:00:11.130Z,18.60
2018-06-15T01:02:39.285Z,18.60
2018-06-15T01:05:07.479Z,18.60
2018-06-15T01:07:35.574Z,18.60
2018-06-15T01:10:03.689Z,18.60
2018-06-15T01:12:31.800Z,18.60
2018-06-15T01:14:59.890Z,18.50
2018-06-15T01:17:28.001Z,18.50
2018-06-15T01:19:56.322Z,18.50
2018-06-15T01:22:24.428Z,18.50
2018-06-15T01:24:52.535Z,18.50
2018-06-15T01:27:20.642Z,18.50
2018-06-15T01:29:48.755Z,18.50
2018-06-15T01:32:16.851Z,18.50
2018-06-15T01:34:44.971Z,18.50
2018-06-15T01:37:13.079Z,18.50
2018-06-15T01:39:41.194Z,18.50
2018-06-15T01:42:09.313Z,18.50
2018-06-15T01:44:37.426Z,18.40
2018-06-15T01:47:05.566Z,18.40
2018-06-15T01:49:33.682Z,18.40
2018-06-15T01:52:01.796Z,18.40
2018-06-15T01:54:29.922Z,18.40
2018-06-15T01:56:58.027Z,18.30
2018-06-15T01:59:26.140Z,18.30
2018-06-15T02:01:54.235Z,18.30
2018-06-15T02:04:22.358Z,18.20
2018-06-15T02:06:50.445Z,18.20
2018-06-15T02:09:18.562Z,18.10
2018-06-15T02:11:46.672Z,18.10
2018-06-15T02:14:14.832Z,18.00
2018-06-15T02:16:42.996Z,18.10
2018-06-15T02:19:11.169Z,18.00
2018-06-15T02:21:39.321Z,18.00
2018-06-15T02:24:07.486Z,17.90
2018-06-15T02:26:35.645Z,17.90
2018-06-15T02:29:03.817Z,17.90
2018-06-15T02:31:31.997Z,17.90
2018-06-15T02:34:00.142Z,17.80
2018-06-15T02:36:28.306Z,17.80
2018-06-15T02:38:56.457Z,17.80
2018-06-15T02:41:24.613Z,17.80
2018-06-15T02:43:52.767Z,17.70
2018-06-15T02:46:20.945Z,17.70
2018-06-15T02:48:49.097Z,17.70
2018-06-15T02:51:17.266Z,17.70
2018-06-15T02:53:45.425Z,17.70
2018-06-15T02:56:13.597Z,17.70
2018-06-15T02:58:41.742Z,17.60
2018-06-15T03:01:09.906Z,17.60
2018-06-15T03:03:38.062Z,17.60
2018-06-15T03:06:06.352Z,17.60
2018-06-15T03:08:34.514Z,17.60
2018-06-15T03:11:02.672Z,17.60
2018-06-15T03:13:30.828Z,17.60
2018-06-15T03:15:59.078Z,17.70
2018-06-15T03:18:27.317Z,17.70
2018-06-15T03:20:55.473Z,17.70
2018-06-15T03:23:23.616Z,17.80
2018-06-15T03:25:51.797Z,17.80
2018-06-15T03:28:19.970Z,17.80
2018-06-15T03:30:48.118Z,17.80
2018-06-15T03:33:16.282Z,17.80
2018-06-15T03:35:44.437Z,17.80
2018-06-15T03:38:12.605Z,17.80
2018-06-15T03:40:40.755Z,17.80
2018-06-15T03:43:08.909Z,17.90
2018-06-15T03:45:37.075Z,17.90
2018-06-15T03:48:05.269Z,17.90
2018-06-15T03:50:33.680Z,17.90
2018-06-15T03:53:01.845Z,17.90
2018-06-15T03:55:30.007Z,17.90
2018-06-15T03:57:58.166Z,18.00
2018-06-15T04:00:26.342Z,18.00
2018-06-15T04:02:54.541Z,18.00
2018-06-15T04:05:22.702Z,18.00
2018-06-15T04:07:50.917Z,18.00
2018-06-15T04:10:19.089Z,18.00
2018-06-15T04:12:47.242Z,18.00
2018-06-15T04:15:15.396Z,18.00
2018-06-15T04:17:43.564Z,18.00
2018-06-15T04:20:11.730Z,18.00
2018-06-15T04:22:39.917Z,18.00
2018-06-15T04:25:08.061Z,18.00
2018-06-15T04:27:36.221Z,18.10
2018-06-15T04:30:04.442Z,18.10
2018-06-15T04:32:32.671Z,18.10
2018-06-15T04:35:00.840Z,18.10
2018-06-15T04:37:29.049Z,18.10
2018-06-15T04:39:57.215Z,18.10
2018-06-15T04:42:25.366Z,18.10
2018-06-15T04:44:53.544Z,18.10
2018-06-15T04:47:21.724Z,18.10
2018-06-15T04:49:49.877Z,18.10
2018-06-15T04:52:18.026Z,18.10
2018-06-15T04:54:46.233Z,18.20
2018-06-15T04:57:14.399Z,18.20
2018-06-15T04:59:42.561Z,18.20
2018-06-15T05:02:10.886Z,18.20
2018-06-15T05:04:39.050Z,18.20
2018-06-15T05:07:07.244Z,18.20
2018-06-15T05:09:35.409Z,18.30
2018-06-15T05:12:03.582Z,18.30
2018-06-15T05:14:31.840Z,18.30
2018-06-15T05:17:00.016Z,18.30
2018-06-15T05:19:28.168Z,18.30
2018-06-15T05:21:56.343Z,18.30
2018-06-15T05:26:52.454Z,18.40
2018-06-15T05:29:20.709Z,18.40
2018-06-15T05:31:48.869Z,18.40
2018-06-15T05:34:17.057Z,18.40
2018-06-15T05:36:45.229Z,18.40
2018-06-15T05:39:13.414Z,18.40
2018-06-15T05:41:41.751Z,18.40
2018-06-15T05:44:09.923Z,18.40
2018-06-15T05:46:38.097Z,18.40
2018-06-15T05:49:06.276Z,18.40
2018-06-15T05:51:34.473Z,18.40
2018-06-15T05:54:02.665Z,18.40
2018-06-15T05:56:30.849Z,18.50
2018-06-15T05:58:59.040Z,18.50
2018-06-15T06:01:27.213Z,18.50
2018-06-15T06:03:55.450Z,18.50
2018-06-15T06:06:23.605Z,18.50
2018-06-15T06:08:51.770Z,18.50
2018-06-15T06:11:20.085Z,18.50
2018-06-15T06:13:48.269Z,18.50
2018-06-15T06:18:44.387Z,18.60
2018-06-15T06:21:12.556Z,18.60
2018-06-15T06:23:40.720Z,18.60
2018-06-15T06:26:09.029Z,18.60
2018-06-15T06:28:37.208Z,18.60
2018-06-15T06:31:05.569Z,18.70
2018-06-15T06:33:33.751Z,18.70
2018-06-15T06:36:01.929Z,18.70
2018-06-15T06:38:30.309Z,18.70
2018-06-15T06:40:58.482Z,18.70
2018-06-15T06:43:26.645Z,18.70
2018-06-15T06:45:54.805Z,18.80
2018-06-15T06:48:22.965Z,18.80
2018-06-15T06:50:51.141Z,18.80
2018-06-15T06:53:19.316Z,18.80
2018-06-15T06:55:47.502Z,18.90
2018-06-15T06:58:15.942Z,18.90
2018-06-15T07:00:44.113Z,18.90
2018-06-15T07:03:12.745Z,18.90
2018-06-15T07:05:40.932Z,18.90
2018-06-15T07:08:09.090Z,18.90
2018-06-15T07:10:37.256Z,18.90
2018-06-15T07:13:05.454Z,18.90
2018-06-15T07:15:33.790Z,18.90
2018-06-15T07:18:02.090Z,18.90
2018-06-15T07:20:30.282Z,18.80
2018-06-15T07:22:58.461Z,18.80
2018-06-15T07:25:26.639Z,18.90
2018-06-15T07:27:54.829Z,18.90
2018-06-15T07:30:22.998Z,18.90
2018-06-15T07:32:51.169Z,19.00
2018-06-15T07:35:19.411Z,19.00
2018-06-15T07:37:47.582Z,19.00
2018-06-15T07:40:15.776Z,19.00
2018-06-15T07:42:43.941Z,19.00
2018-06-15T07:45:12.131Z,19.00
2018-06-15T07:47:40.305Z,19.00
2018-06-15T07:52:36.455Z,19.10
2018-06-15T07:55:04.640Z,19.10
2018-06-15T07:57:32.854Z,19.10
2018-06-15T08:00:01.658Z,19.20
2018-06-15T08:02:29.839Z,19.10
2018-06-15T08:04:58.013Z,19.10
2018-06-15T08:07:26.190Z,19.10
2018-06-15T08:09:54.380Z,19.20
2018-06-15T08:14:50.511Z,19.20
2018-06-15T08:17:18.703Z,19.20
2018-06-15T08:19:46.890Z,19.20
2018-06-15T08:22:15.102Z,19.30
2018-06-15T08:24:43.269Z,19.40
2018-06-15T08:27:11.583Z,19.40
2018-06-15T08:29:39.767Z,19.50
2018-06-15T08:32:08.050Z,19.50
2018-06-15T08:34:36.221Z,19.50
2018-06-15T08:37:04.410Z,19.50
2018-06-15T08:39:32.604Z,19.60
2018-06-15T08:42:00.787Z,19.60
2018-06-15T08:44:28.982Z,19.60
2018-06-15T08:46:57.165Z,19.60
2018-06-15T08:49:25.352Z,19.60
2018-06-15T08:51:54.149Z,19.60
2018-06-15T08:54:22.329Z,19.60
2018-06-15T08:56:50.497Z,19.70
2018-06-15T08:59:18.653Z,19.70
2018-06-15T09:01:46.799Z,19.70
2018-06-15T09:04:14.989Z,19.70
2018-06-15T09:06:43.173Z,19.80
2018-06-15T09:09:11.401Z,19.80
2018-06-15T09:11:39.549Z,19.80
2018-06-15T09:14:07.797Z,19.90
2018-06-15T09:16:35.963Z,19.90
2018-06-15T09:19:04.133Z,19.90
2018-06-15T09:21:32.306Z,19.90
2018-06-15T09:24:00.460Z,19.90
2018-06-15T09:26:28.655Z,19.90
2018-06-15T09:28:56.909Z,19.90
2018-06-15T09:31:25.085Z,20.00
2018-06-15T09:33:53.263Z,20.00
2018-06-15T09:36:21.445Z,20.00
2018-06-15T09:38:49.609Z,20.00
2018-06-15T09:41:17.757Z,20.00
2018-06-15T09:43:45.927Z,20.00
2018-06-15T09:46:14.125Z,20.00
2018-06-15T09:48:43.890Z,20.00
2018-06-15T09:51:13.169Z,20.10
2018-06-15T09:53:41.335Z,20.10
2018-06-15T09:56:10.095Z,20.20
2018-06-15T09:58:38.253Z,20.20
2018-06-15T10:01:07.409Z,20.30
2018-06-15T10:03:35.782Z,20.30
2018-06-15T10:06:04.178Z,20.30
2018-06-15T10:08:32.537Z,20.30
2018-06-15T10:11:00.756Z,20.30
2018-06-15T10:13:28.930Z,20.40
2018-06-15T10:15:57.095Z,20.40
2018-06-15T10:18:25.265Z,20.40
2018-06-15T10:20:53.457Z,20.40
2018-06-15T10:23:21.640Z,20.40
2018-06-15T10:25:49.863Z,20.50
2018-06-15T10:28:18.029Z,20.60
2018-06-15T10:30:46.185Z,20.70
2018-06-15T10:33:14.354Z,20.80
2018-06-15T10:35:42.521Z,20.90
2018-06-15T10:38:10.780Z,21.00
2018-06-15T10:40:39.101Z,21.00
2018-06-15T10:43:07.310Z,21.10
2018-06-15T10:45:35.598Z,21.20
2018-06-15T10:48:03.749Z,21.20
2018-06-15T10:50:31.963Z,21.30
2018-06-15T10:53:00.132Z,21.40
2018-06-15T10:55:28.314Z,21.40
2018-06-15T10:57:56.465Z,21.50
2018-06-15T11:00:24.613Z,21.60
2018-06-15T11:02:52.785Z,21.60
2018-06-15T11:05:20.925Z,21.70
2018-06-15T11:07:49.084Z,21.80
2018-06-15T11:10:18.079Z,21.90
2018-06-15T11:12:46.247Z,21.90
2018-06-15T11:15:14.410Z,22.10
2018-06-15T11:17:42.586Z,22.20
2018-06-15T11:20:10.746Z,22.30
2018-06-15T11:22:38.906Z,22.40
2018-06-15T11:25:07.060Z,22.40
2018-06-15T11:27:35.229Z,22.50
2018-06-15T11:30:03.390Z,22.50
2018-06-15T11:32:31.556Z,22.50
2018-06-15T11:34:59.714Z,22.50
2018-06-15T11:37:27.901Z,22.50
2018-06-15T11:39:56.175Z,22.50
2018-06-15T11:42:24.417Z,22.50
2018-06-15T11:44:52.863Z,22.60
2018-06-15T11:47:21.042Z,22.60
2018-06-15T11:49:49.201Z,22.60
2018-06-15T11:52:17.345Z,22.70
2018-06-15T11:54:45.561Z,22.70
2018-06-15T11:57:13.738Z,22.70
2018-06-15T11:59:41.910Z,22.80
2018-06-15T12:02:10.133Z,22.80
2018-06-15T12:04:38.319Z,22.80
2018-06-15T12:07:06.490Z,22.70
2018-06-15T12:09:34.690Z,22.70
2018-06-15T12:12:02.836Z,22.70
2018-06-15T12:14:31.166Z,22.70
2018-06-15T12:16:59.414Z,22.80
2018-06-15T12:19:27.842Z,22.90
2018-06-15T12:21:56.018Z,23.00
2018-06-15T12:24:24.233Z,23.00
2018-06-15T12:26:52.426Z,23.00
2018-06-15T12:29:20.614Z,23.00
2018-06-15T12:31:48.799Z,23.10
2018-06-15T12:34:17.037Z,23.10
2018-06-15T12:36:45.210Z,23.10
2018-06-15T12:39:13.362Z,23.20
2018-06-15T12:41:41.534Z,23.20
2018-06-15T12:44:09.709Z,23.20
2018-06-15T12:46:37.873Z,23.20
2018-06-15T12:49:06.073Z,23.20
2018-06-15T12:51:34.244Z,23.10
2018-06-15T12:54:02.426Z,23.10
2018-06-15T12:56:30.578Z,23.10
2018-06-15T12:58:58.771Z,23.10
2018-06-15T13:01:26.937Z,23.10
2018-06-15T13:03:55.512Z,23.10
2018-06-15T13:06:23.698Z,23.10
2018-06-15T13:08:51.886Z,23.20
2018-06-15T13:11:20.093Z,23.30
2018-06-15T13:13:48.298Z,23.30
2018-06-15T13:16:16.467Z,23.40
2018-06-15T13:18:44.982Z,23.50
2018-06-15T13:21:13.149Z,23.60
2018-06-15T13:23:41.301Z,23.60
2018-06-15T13:26:09.481Z,23.60
2018-06-15T13:28:37.648Z,23.70
2018-06-15T13:31:05.888Z,23.70
2018-06-15T13:33:34.062Z,23.80
2018-06-15T13:36:02.217Z,23.80
2018-06-15T13:38:30.377Z,23.80
2018-06-15T13:43:26.466Z,23.70
2018-06-15T13:45:54.630Z,23.60
2018-06-15T13:48:22.840Z,23.60
2018-06-15T13:50:50.997Z,23.60
2018-06-15T13:53:19.184Z,23.60
2018-06-15T13:55:47.337Z,23.60
2018-06-15T13:58:15.592Z,23.60
2018-06-15T14:00:43.752Z,23.60
2018-06-15T14:03:12.108Z,23.60
2018-06-15T14:05:40.262Z,23.60
2018-06-15T14:08:08.446Z,23.60
2018-06-15T14:10:36.641Z,23.60
2018-06-15T14:13:04.990Z,23.70
2018-06-15T14:15:33.152Z,23.70
2018-06-15T14:18:01.383Z,23.70
2018-06-15T14:20:30.045Z,23.80
2018-06-15T14:22:58.216Z,23.80
2018-06-15T14:25:26.372Z,23.80
2018-06-15T14:27:54.654Z,23.80
2018-06-15T14:30:22.844Z,23.70
2018-06-15T14:32:51.050Z,23.70
2018-06-15T14:35:19.162Z,23.70
2018-06-15T14:37:47.390Z,23.80
2018-06-15T14:40:15.540Z,23.80
2018-06-15T14:45:11.695Z,23.90
2018-06-15T14:47:39.890Z,23.90
2018-06-15T14:50:08.057Z,23.90
2018-06-15T14:52:36.256Z,23.80
2018-06-15T14:55:04.544Z,23.80
2018-06-15T14:57:32.708Z,23.80
2018-06-15T15:00:00.973Z,23.80
2018-06-15T15:02:29.139Z,23.80
2018-06-15T15:04:57.333Z,23.80
2018-06-15T15:07:25.492Z,23.80
2018-06-15T15:09:53.697Z,23.80
2018-06-15T15:12:21.900Z,23.80
2018-06-15T15:14:50.306Z,23.80
2018-06-15T15:17:18.468Z,23.90
2018-06-15T15:19:46.656Z,23.90
2018-06-15T15:22:14.903Z,23.90
2018-06-15T15:24:43.065Z,24.00
2018-06-15T15:27:11.205Z,24.00
2018-06-15T15:29:39.394Z,24.00
2018-06-15T15:32:07.574Z,24.00
2018-06-15T15:34:35.833Z,24.00
2018-06-15T15:37:03.988Z,24.00
2018-06-15T15:39:32.160Z,24.10
2018-06-15T15:42:00.306Z,24.10
2018-06-15T15:44:28.505Z,24.10
2018-06-15T15:46:56.671Z,24.10
2018-06-15T15:49:24.840Z,24.10
2018-06-15T15:51:53.024Z,24.10
2018-06-15T15:54:21.185Z,24.10
2018-06-15T15:56:49.369Z,24.20
2018-06-15T15:59:17.525Z,24.20
2018-06-15T16:01:45.685Z,24.20
2018-06-15T16:04:13.835Z,24.20
2018-06-15T16:06:42.023Z,24.20
2018-06-15T16:09:10.594Z,24.20
2018-06-15T16:11:38.767Z,24.20
2018-06-15T16:14:07.133Z,24.20
2018-06-15T16:16:35.281Z,24.10
2018-06-15T16:19:03.469Z,24.10
2018-06-15T16:21:31.634Z,24.10
2018-06-15T16:23:59.789Z,24.10
2018-06-15T16:26:27.962Z,24.10
2018-06-15T16:28:56.151Z,24.20
2018-06-15T16:31:24.338Z,24.10
2018-06-15T16:33:52.483Z,24.10
2018-06-15T16:36:20.661Z,24.20
2018-06-15T16:38:48.824Z,24.20
2018-06-15T16:41:17.034Z,24.20
2018-06-15T16:43:45.289Z,24.20
2018-06-15T16:46:13.472Z,24.30
2018-06-15T16:48:42.061Z,24.30
2018-06-15T16:51:10.401Z,24.30
2018-06-15T16:53:38.603Z,24.30
2018-06-15T16:56:06.940Z,24.30
2018-06-15T16:58:35.086Z,24.30
2018-06-15T17:01:03.235Z,24.30
2018-06-15T17:03:31.401Z,24.30
2018-06-15T17:05:59.537Z,24.20
2018-06-15T17:08:27.689Z,24.20
2018-06-15T17:10:55.868Z,24.20
2018-06-15T17:13:24.027Z,24.20
2018-06-15T17:15:52.205Z,24.20
2018-06-15T17:18:20.359Z,24.20
2018-06-15T17:20:48.545Z,24.10
2018-06-15T17:23:16.706Z,24.00
2018-06-15T17:25:44.909Z,24.00
2018-06-15T17:28:13.069Z,23.90
2018-06-15T17:30:41.245Z,23.90
2018-06-15T17:33:09.401Z,23.90
2018-06-15T17:35:37.570Z,23.90
2018-06-15T17:38:05.833Z,23.90
2018-06-15T17:40:33.939Z,23.90
2018-06-15T17:43:02.094Z,23.80
2018-06-15T17:45:30.254Z,23.80
2018-06-15T17:47:58.452Z,23.80
2018-06-15T17:50:26.676Z,23.80
2018-06-15T17:52:54.796Z,23.80
2018-06-15T17:55:22.983Z,23.80
2018-06-15T17:57:51.157Z,23.80
2018-06-15T18:00:19.350Z,23.80
2018-06-15T18:02:47.670Z,23.80
2018-06-15T18:05:15.831Z,23.80
2018-06-15T18:07:43.986Z,23.80
2018-06-15T18:10:12.181Z,23.80
2018-06-15T18:12:40.402Z,23.80
2018-06-15T18:15:09.238Z,23.80
2018-06-15T18:17:37.385Z,23.80
2018-06-15T18:20:05.746Z,23.80
2018-06-15T18:22:33.918Z,23.80
2018-06-15T18:25:02.074Z,23.70
2018-06-15T18:27:30.225Z,23.70
2018-06-15T18:29:58.385Z,23.60
2018-06-15T18:32:26.533Z,23.60
2018-06-15T18:34:54.694Z,23.60
2018-06-15T18:37:22.838Z,23.60
2018-06-15T18:39:50.993Z,23.60
2018-06-15T18:42:19.149Z,23.60
2018-06-15T18:44:47.317Z,23.50
2018-06-15T18:47:15.471Z,23.50
2018-06-15T18:49:43.709Z,23.50
2018-06-15T18:52:11.882Z,23.50
2018-06-15T18:54:40.064Z,23.50
2018-06-15T18:57:08.277Z,23.50
2018-06-15T18:59:36.783Z,23.50
2018-06-15T19:02:04.936Z,23.50
2018-06-15T19:04:33.094Z,23.40
2018-06-15T19:07:01.261Z,23.40
2018-06-15T19:09:29.421Z,23.40
2018-06-15T19:11:57.595Z,23.40
2018-06-15T19:14:25.744Z,23.30
2018-06-15T19:16:53.906Z,23.30
2018-06-15T19:19:22.054Z,23.30
2018-06-15T19:21:50.215Z,23.30
2018-06-15T19:26:46.362Z,23.30
2018-06-15T19:29:14.501Z,23.20
2018-06-15T19:31:42.648Z,23.20
2018-06-15T19:34:10.813Z,23.30
2018-06-15T19:36:38.973Z,23.20
2018-06-15T19:39:07.396Z,23.20
2018-06-15T19:41:35.569Z,23.20
2018-06-15T19:44:03.731Z,23.20
2018-06-15T19:46:31.972Z,23.10
2018-06-15T19:49:00.110Z,23.10
2018-06-15T19:51:28.266Z,23.10
2018-06-15T19:53:56.441Z,23.10
2018-06-15T19:56:24.670Z,23.00
2018-06-15T19:58:52.982Z,23.00
2018-06-15T20:01:21.125Z,23.00
2018-06-15T20:03:49.293Z,22.90
2018-06-15T20:06:17.467Z,23.00
2018-06-15T20:08:45.677Z,22.90
2018-06-15T20:11:13.837Z,22.90
2018-06-15T20:13:42.084Z,22.90
2018-06-15T20:16:10.266Z,22.90
2018-06-15T20:18:38.446Z,22.90
2018-06-15T20:21:06.737Z,22.90
2018-06-15T20:23:34.914Z,22.90
2018-06-15T20:26:03.070Z,22.90
2018-06-15T20:28:31.233Z,22.90
2018-06-15T20:30:59.478Z,22.90
2018-06-15T20:33:27.635Z,22.80
2018-06-15T20:35:55.841Z,22.80
2018-06-15T20:38:24.025Z,22.80
2018-06-15T20:40:52.169Z,22.80
2018-06-15T20:43:20.421Z,22.80
2018-06-15T20:45:48.636Z,22.80
2018-06-15T20:48:16.806Z,22.80
2018-06-15T20:50:44.979Z,22.80
2018-06-15T20:53:13.229Z,22.80
2018-06-15T20:55:41.317Z,22.80
2018-06-15T20:58:09.485Z,22.80
2018-06-15T21:00:37.640Z,22.80
2018-06-15T21:03:05.834Z,22.80
2018-06-15T21:05:34.037Z,22.80
2018-06-15T21:08:02.193Z,22.70
2018-06-15T21:10:30.344Z,22.70
2018-06-15T21:12:58.522Z,22.70
2018-06-15T21:15:26.689Z,22.70
2018-06-15T21:17:54.863Z,22.70
2018-06-15T21:20:23.042Z,22.60
2018-06-15T21:22:51.214Z,22.60
2018-06-15T21:25:19.381Z,22.60
2018-06-15T21:27:47.566Z,22.60
2018-06-15T21:30:15.761Z,22.60
2018-06-15T21:32:43.923Z,22.50
2018-06-15T21:35:12.123Z,22.50
2018-06-15T21:37:40.557Z,22.50
2018-06-15T21:40:08.752Z,22.40
2018-06-15T21:42:36.969Z,22.40
2018-06-15T21:45:05.149Z,22.40
2018-06-15T21:47:33.469Z,22.30
2018-06-15T21:50:01.663Z,22.30
2018-06-15T21:52:29.866Z,22.20
2018-06-15T21:54:58.136Z,22.20
2018-06-15T21:57:26.299Z,22.20
2018-06-15T21:59:54.469Z,22.10
2018-06-15T22:02:22.635Z,22.10
2018-06-15T22:04:50.802Z,22.10
2018-06-15T22:07:18.965Z,22.00
2018-06-15T22:09:47.137Z,21.90
2018-06-15T22:12:15.306Z,21.90
2018-06-15T22:14:43.462Z,21.90
2018-06-15T22:17:11.641Z,21.90
2018-06-15T22:19:39.795Z,21.80
2018-06-15T22:22:07.969Z,21.80
2018-06-15T22:24:36.128Z,21.80
2018-06-15T22:27:04.321Z,21.70
2018-06-15T22:29:32.483Z,21.70
2018-06-15T22:32:00.711Z,21.70
2018-06-15T22:34:28.810Z,21.70
2018-06-15T22:36:56.980Z,21.70
2018-06-15T22:39:25.143Z,21.60
2018-06-15T22:41:53.322Z,21.60
2018-06-15T22:44:21.483Z,21.60
2018-06-15T22:46:49.648Z,21.60
2018-06-15T22:49:17.810Z,21.50
2018-06-15T22:51:45.976Z,21.50
2018-06-15T22:54:14.137Z,21.50
2018-06-15T22:56:42.318Z,21.40
2018-06-15T22:59:10.473Z,21.40
2018-06-15T23:01:38.638Z,21.40
2018-06-15T23:04:06.809Z,21.40
2018-06-15T23:06:34.986Z,21.30
2018-06-15T23:09:03.235Z,21.30
2018-06-15T23:11:31.417Z,21.30
2018-06-15T23:13:59.580Z,21.30
2018-06-15T23:16:27.753Z,21.30
2018-06-15T23:18:55.927Z,21.20
2018-06-15T23:21:24.105Z,21.20
2018-06-15T23:23:52.277Z,21.20
2018-06-15T23:26:20.438Z,21.20
2018-06-15T23:28:48.604Z,21.20
2018-06-15T23:31:16.791Z,21.10
2018-06-15T23:33:44.970Z,21.10
2018-06-15T23:36:13.321Z,21.10
2018-06-15T23:38:41.494Z,21.00
2018-06-15T23:41:09.665Z,21.00
2018-06-15T23:43:37.857Z,21.00
2018-06-15T23:46:06.070Z,21.00
2018-06-15T23:48:34.284Z,21.00
2018-06-15T23:51:02.747Z,21.00
2018-06-15T23:53:30.909Z,20.90
2018-06-15T23:55:59.086Z,20.90
2018-06-15T23:58:27.257Z,20.90
